sensor_id;sensor_type;location;lat;lon;timestamp;P1;durP1;ratioP1;P2;durP2;ratioP2
15398;SDS011;7797;51.428;6.756;2023-05-07T00:02:24;3.67;;;3.37;;
15398;SDS011;7797;51.428;6.756;2023-05-07T00:04:52;4.03;;;3.70;;
15398;SDS011;7797;51.428;6.756;2023-05-07T00:07:18;4.53;;;4.13;;
15398;SDS011;7797;51.428;6.756;2023-05-07T00:09:45;4.00;;;3.70;;
15398;SDS011;7797;51.428;6.756;2023-05-07T00:12:12;4.50;;;4.00;;
15398;SDS011;7797;51.428;6.756;2023-05-07T00:14:38;4.97;;;4.30;;
15398;SDS011;7797;51.428;6.756;2023-05-07T00:17:05;6.00;;;4.17;;
15398;SDS011;7797;51.428;6.756;2023-05-07T00:19:32;4.73;;;3.90;;
15398;SDS011;7797;51.428;6.756;2023-05-07T00:21:59;4.83;;;4.20;;
15398;SDS011;7797;51.428;6.756;2023-05-07T00:24:25;4.57;;;4.17;;
15398;SDS011;7797;51.428;6.756;2023-05-07T00:26:52;4.77;;;4.10;;
15398;SDS011;7797;51.428;6.756;2023-05-07T00:29:19;5.53;;;4.30;;
15398;SDS011;7797;51.428;6.756;2023-05-07T00:31:46;4.80;;;4.43;;
15398;SDS011;7797;51.428;6.756;2023-05-07T00:34:13;6.63;;;5.00;;
15398;SDS011;7797;51.428;6.756;2023-05-07T00:36:39;5.77;;;5.23;;
15398;SDS011;7797;51.428;6.756;2023-05-07T00:39:06;5.87;;;4.73;;
15398;SDS011;7797;51.428;6.756;2023-05-07T00:41:33;5.40;;;5.00;;
15398;SDS011;7797;51.428;6.756;2023-05-07T00:43:59;5.40;;;4.83;;
15398;SDS011;7797;51.428;6.756;2023-05-07T00:46:28;5.50;;;5.00;;
15398;SDS011;7797;51.428;6.756;2023-05-07T00:48:57;6.10;;;5.20;;
15398;SDS011;7797;51.428;6.756;2023-05-07T00:51:24;5.93;;;5.23;;
15398;SDS011;7797;51.428;6.756;2023-05-07T00:53:53;5.40;;;4.90;;
15398;SDS011;7797;51.428;6.756;2023-05-07T00:56:20;6.57;;;5.37;;
15398;SDS011;7797;51.428;6.756;2023-05-07T00:58:48;6.00;;;5.17;;
15398;SDS011;7797;51.428;6.756;2023-05-07T01:01:15;5.90;;;5.37;;
15398;SDS011;7797;51.428;6.756;2023-05-07T01:03:43;6.23;;;4.80;;
15398;SDS011;7797;51.428;6.756;2023-05-07T01:06:10;5.67;;;4.70;;
15398;SDS011;7797;51.428;6.756;2023-05-07T01:08:39;5.60;;;4.97;;
15398;SDS011;7797;51.428;6.756;2023-05-07T01:11:07;5.50;;;4.93;;
15398;SDS011;7797;51.428;6.756;2023-05-07T01:13:34;5.63;;;5.07;;
15398;SDS011;7797;51.428;6.756;2023-05-07T01:16:02;7.80;;;5.40;;
15398;SDS011;7797;51.428;6.756;2023-05-07T01:18:29;6.47;;;5.37;;
15398;SDS011;7797;51.428;6.756;2023-05-07T01:20:58;5.90;;;5.30;;
15398;SDS011;7797;51.428;6.756;2023-05-07T01:23:26;5.43;;;4.93;;
15398;SDS011;7797;51.428;6.756;2023-05-07T01:25:54;6.17;;;5.63;;
15398;SDS011;7797;51.428;6.756;2023-05-07T01:28:21;6.53;;;5.33;;
15398;SDS011;7797;51.428;6.756;2023-05-07T01:30:54;5.83;;;5.30;;
15398;SDS011;7797;51.428;6.756;2023-05-07T01:33:22;6.03;;;5.43;;
15398;SDS011;7797;51.428;6.756;2023-05-07T01:35:51;6.03;;;5.43;;
15398;SDS011;7797;51.428;6.756;2023-05-07T01:38:20;5.80;;;5.33;;
15398;SDS011;7797;51.428;6.756;2023-05-07T01:40:48;6.20;;;5.70;;
15398;SDS011;7797;51.428;6.756;2023-05-07T01:43:14;7.00;;;6.17;;
15398;SDS011;7797;51.428;6.756;2023-05-07T01:45:41;6.53;;;5.93;;
15398;SDS011;7797;51.428;6.756;2023-05-07T01:48:09;6.83;;;5.87;;
15398;SDS011;7797;51.428;6.756;2023-05-07T01:50:35;6.90;;;6.20;;
15398;SDS011;7797;51.428;6.756;2023-05-07T01:53:03;5.80;;;5.30;;
15398;SDS011;7797;51.428;6.756;2023-05-07T01:55:29;6.87;;;5.87;;
15398;SDS011;7797;51.428;6.756;2023-05-07T01:57:56;6.37;;;5.70;;
15398;SDS011;7797;51.428;6.756;2023-05-07T02:00:23;6.57;;;5.93;;
15398;SDS011;7797;51.428;6.756;2023-05-07T02:02:50;6.23;;;5.63;;
15398;SDS011;7797;51.428;6.756;2023-05-07T02:05:18;7.07;;;6.20;;
15398;SDS011;7797;51.428;6.756;2023-05-07T02:07:45;6.57;;;5.90;;
15398;SDS011;7797;51.428;6.756;2023-05-07T02:10:11;6.47;;;5.63;;
15398;SDS011;7797;51.428;6.756;2023-05-07T02:12:38;6.83;;;6.20;;
15398;SDS011;7797;51.428;6.756;2023-05-07T02:15:06;5.90;;;5.40;;
15398;SDS011;7797;51.428;6.756;2023-05-07T02:17:33;5.63;;;5.13;;
15398;SDS011;7797;51.428;6.756;2023-05-07T02:20:00;6.93;;;5.90;;
15398;SDS011;7797;51.428;6.756;2023-05-07T02:22:27;5.60;;;5.20;;
15398;SDS011;7797;51.428;6.756;2023-05-07T02:24:53;7.73;;;5.93;;
15398;SDS011;7797;51.428;6.756;2023-05-07T02:27:20;5.50;;;5.00;;
15398;SDS011;7797;51.428;6.756;2023-05-07T02:29:47;5.87;;;5.37;;
15398;SDS011;7797;51.428;6.756;2023-05-07T02:32:13;6.33;;;5.07;;
15398;SDS011;7797;51.428;6.756;2023-05-07T02:34:40;6.03;;;4.90;;
15398;SDS011;7797;51.428;6.756;2023-05-07T02:37:07;5.73;;;4.83;;
15398;SDS011;7797;51.428;6.756;2023-05-07T02:39:34;7.13;;;4.73;;
15398;SDS011;7797;51.428;6.756;2023-05-07T02:42:01;5.20;;;4.70;;
15398;SDS011;7797;51.428;6.756;2023-05-07T02:44:28;4.97;;;4.57;;
15398;SDS011;7797;51.428;6.756;2023-05-07T02:46:57;5.23;;;4.60;;
15398;SDS011;7797;51.428;6.756;2023-05-07T02:49:24;4.97;;;4.60;;
15398;SDS011;7797;51.428;6.756;2023-05-07T02:51:51;5.73;;;4.77;;
15398;SDS011;7797;51.428;6.756;2023-05-07T02:54:17;5.77;;;4.63;;
15398;SDS011;7797;51.428;6.756;2023-05-07T02:56:44;4.90;;;4.40;;
15398;SDS011;7797;51.428;6.756;2023-05-07T02:59:11;5.10;;;4.60;;
15398;SDS011;7797;51.428;6.756;2023-05-07T03:01:38;5.00;;;4.60;;
15398;SDS011;7797;51.428;6.756;2023-05-07T03:04:05;6.03;;;5.27;;
15398;SDS011;7797;51.428;6.756;2023-05-07T03:06:31;5.90;;;5.20;;
15398;SDS011;7797;51.428;6.756;2023-05-07T03:08:58;5.97;;;5.20;;
15398;SDS011;7797;51.428;6.756;2023-05-07T03:11:25;5.37;;;4.87;;
15398;SDS011;7797;51.428;6.756;2023-05-07T03:13:52;6.00;;;5.13;;
15398;SDS011;7797;51.428;6.756;2023-05-07T03:16:18;6.63;;;5.03;;
15398;SDS011;7797;51.428;6.756;2023-05-07T03:18:45;5.60;;;5.10;;
15398;SDS011;7797;51.428;6.756;2023-05-07T03:21:12;5.37;;;4.87;;
15398;SDS011;7797;51.428;6.756;2023-05-07T03:23:39;5.53;;;5.03;;
15398;SDS011;7797;51.428;6.756;2023-05-07T03:26:05;6.87;;;5.80;;
15398;SDS011;7797;51.428;6.756;2023-05-07T03:28:32;7.23;;;6.30;;
15398;SDS011;7797;51.428;6.756;2023-05-07T03:30:59;6.67;;;5.97;;
15398;SDS011;7797;51.428;6.756;2023-05-07T03:33:26;7.20;;;6.00;;
15398;SDS011;7797;51.428;6.756;2023-05-07T03:35:53;7.60;;;6.73;;
15398;SDS011;7797;51.428;6.756;2023-05-07T03:38:20;7.20;;;6.50;;
15398;SDS011;7797;51.428;6.756;2023-05-07T03:40:47;7.80;;;6.63;;
15398;SDS011;7797;51.428;6.756;2023-05-07T03:43:14;7.20;;;6.50;;
15398;SDS011;7797;51.428;6.756;2023-05-07T03:45:40;7.63;;;6.90;;
15398;SDS011;7797;51.428;6.756;2023-05-07T03:48:07;9.20;;;6.73;;
15398;SDS011;7797;51.428;6.756;2023-05-07T03:50:34;7.30;;;6.63;;
15398;SDS011;7797;51.428;6.756;2023-05-07T03:53:00;7.53;;;6.73;;
15398;SDS011;7797;51.428;6.756;2023-05-07T03:55:27;8.03;;;6.73;;
15398;SDS011;7797;51.428;6.756;2023-05-07T03:57:55;7.60;;;6.90;;
15398;SDS011;7797;51.428;6.756;2023-05-07T04:00:22;7.97;;;6.53;;
15398;SDS011;7797;51.428;6.756;2023-05-07T04:02:49;6.77;;;5.90;;
15398;SDS011;7797;51.428;6.756;2023-05-07T04:05:16;8.00;;;6.97;;
15398;SDS011;7797;51.428;6.756;2023-05-07T04:07:43;7.20;;;6.50;;
15398;SDS011;7797;51.428;6.756;2023-05-07T04:10:09;8.13;;;6.63;;
15398;SDS011;7797;51.428;6.756;2023-05-07T04:12:36;7.43;;;6.73;;
15398;SDS011;7797;51.428;6.756;2023-05-07T04:15:03;8.73;;;6.37;;
15398;SDS011;7797;51.428;6.756;2023-05-07T04:17:30;8.47;;;6.53;;
15398;SDS011;7797;51.428;6.756;2023-05-07T04:19:57;7.10;;;6.40;;
15398;SDS011;7797;51.428;6.756;2023-05-07T04:22:24;7.33;;;6.63;;
15398;SDS011;7797;51.428;6.756;2023-05-07T04:24:50;7.50;;;6.80;;
15398;SDS011;7797;51.428;6.756;2023-05-07T04:27:17;7.23;;;5.73;;
15398;SDS011;7797;51.428;6.756;2023-05-07T04:29:44;6.67;;;6.03;;
15398;SDS011;7797;51.428;6.756;2023-05-07T04:32:13;7.00;;;6.40;;
15398;SDS011;7797;51.428;6.756;2023-05-07T04:34:40;7.03;;;6.33;;
15398;SDS011;7797;51.428;6.756;2023-05-07T04:37:07;7.07;;;6.37;;
15398;SDS011;7797;51.428;6.756;2023-05-07T04:39:33;7.93;;;6.93;;
15398;SDS011;7797;51.428;6.756;2023-05-07T04:42:01;7.93;;;6.40;;
15398;SDS011;7797;51.428;6.756;2023-05-07T04:44:29;7.53;;;6.60;;
15398;SDS011;7797;51.428;6.756;2023-05-07T04:47:03;8.10;;;7.27;;
15398;SDS011;7797;51.428;6.756;2023-05-07T04:49:30;7.70;;;7.00;;
15398;SDS011;7797;51.428;6.756;2023-05-07T04:51:57;7.53;;;6.90;;
15398;SDS011;7797;51.428;6.756;2023-05-07T04:54:23;8.17;;;7.17;;
15398;SDS011;7797;51.428;6.756;2023-05-07T04:56:51;7.83;;;7.13;;
15398;SDS011;7797;51.428;6.756;2023-05-07T04:59:18;8.20;;;7.50;;
15398;SDS011;7797;51.428;6.756;2023-05-07T05:01:44;8.47;;;7.57;;
15398;SDS011;7797;51.428;6.756;2023-05-07T05:04:11;8.67;;;7.77;;
15398;SDS011;7797;51.428;6.756;2023-05-07T05:06:39;9.17;;;7.50;;
15398;SDS011;7797;51.428;6.756;2023-05-07T05:09:06;8.83;;;8.03;;
15398;SDS011;7797;51.428;6.756;2023-05-07T05:11:32;9.57;;;8.23;;
15398;SDS011;7797;51.428;6.756;2023-05-07T05:13:59;8.37;;;7.43;;
15398;SDS011;7797;51.428;6.756;2023-05-07T05:16:27;9.40;;;8.43;;
15398;SDS011;7797;51.428;6.756;2023-05-07T05:18:53;9.53;;;8.53;;
15398;SDS011;7797;51.428;6.756;2023-05-07T05:21:21;8.00;;;7.20;;
15398;SDS011;7797;51.428;6.756;2023-05-07T05:23:47;8.83;;;7.87;;
15398;SDS011;7797;51.428;6.756;2023-05-07T05:26:14;8.60;;;7.80;;
15398;SDS011;7797;51.428;6.756;2023-05-07T05:28:41;8.67;;;7.73;;
15398;SDS011;7797;51.428;6.756;2023-05-07T05:31:07;8.67;;;7.77;;
15398;SDS011;7797;51.428;6.756;2023-05-07T05:33:34;8.60;;;7.80;;
15398;SDS011;7797;51.428;6.756;2023-05-07T05:36:01;7.80;;;7.10;;
15398;SDS011;7797;51.428;6.756;2023-05-07T05:38:28;8.67;;;7.90;;
15398;SDS011;7797;51.428;6.756;2023-05-07T05:40:54;8.70;;;7.90;;
15398;SDS011;7797;51.428;6.756;2023-05-07T05:43:22;9.20;;;7.83;;
15398;SDS011;7797;51.428;6.756;2023-05-07T05:45:49;8.30;;;7.40;;
15398;SDS011;7797;51.428;6.756;2023-05-07T05:48:16;8.47;;;7.67;;
15398;SDS011;7797;51.428;6.756;2023-05-07T05:50:43;8.80;;;8.00;;
15398;SDS011;7797;51.428;6.756;2023-05-07T05:53:09;9.13;;;8.23;;
15398;SDS011;7797;51.428;6.756;2023-05-07T05:55:36;8.77;;;7.87;;
15398;SDS011;7797;51.428;6.756;2023-05-07T05:58:09;8.77;;;7.97;;
15398;SDS011;7797;51.428;6.756;2023-05-07T06:00:36;9.53;;;8.63;;
15398;SDS011;7797;51.428;6.756;2023-05-07T06:03:02;11.13;;;8.47;;
15398;SDS011;7797;51.428;6.756;2023-05-07T06:05:29;9.50;;;8.50;;
15398;SDS011;7797;51.428;6.756;2023-05-07T06:07:56;9.70;;;8.60;;
15398;SDS011;7797;51.428;6.756;2023-05-07T06:10:22;8.63;;;7.83;;
15398;SDS011;7797;51.428;6.756;2023-05-07T06:12:50;8.87;;;7.93;;
15398;SDS011;7797;51.428;6.756;2023-05-07T06:15:17;8.97;;;8.17;;
15398;SDS011;7797;51.428;6.756;2023-05-07T06:17:43;9.47;;;8.00;;
15398;SDS011;7797;51.428;6.756;2023-05-07T06:20:10;9.57;;;8.33;;
15398;SDS011;7797;51.428;6.756;2023-05-07T06:22:38;9.03;;;8.13;;
15398;SDS011;7797;51.428;6.756;2023-05-07T06:25:04;7.97;;;7.27;;
15398;SDS011;7797;51.428;6.756;2023-05-07T06:27:31;8.20;;;7.40;;
15398;SDS011;7797;51.428;6.756;2023-05-07T06:29:58;8.23;;;7.43;;
15398;SDS011;7797;51.428;6.756;2023-05-07T06:32:25;7.80;;;7.00;;
15398;SDS011;7797;51.428;6.756;2023-05-07T06:34:52;7.13;;;6.43;;
15398;SDS011;7797;51.428;6.756;2023-05-07T06:37:19;7.77;;;7.03;;
15398;SDS011;7797;51.428;6.756;2023-05-07T06:39:46;7.90;;;7.10;;
15398;SDS011;7797;51.428;6.756;2023-05-07T06:42:12;7.57;;;6.90;;
15398;SDS011;7797;51.428;6.756;2023-05-07T06:44:39;7.20;;;6.50;;
15398;SDS011;7797;51.428;6.756;2023-05-07T06:47:06;8.07;;;6.57;;
15398;SDS011;7797;51.428;6.756;2023-05-07T06:49:32;7.10;;;6.40;;
15398;SDS011;7797;51.428;6.756;2023-05-07T06:51:59;7.97;;;6.50;;
15398;SDS011;7797;51.428;6.756;2023-05-07T06:54:26;6.60;;;6.00;;
15398;SDS011;7797;51.428;6.756;2023-05-07T06:56:53;6.83;;;6.17;;
15398;SDS011;7797;51.428;6.756;2023-05-07T06:59:19;6.00;;;5.40;;
15398;SDS011;7797;51.428;6.756;2023-05-07T07:01:46;5.60;;;5.10;;
15398;SDS011;7797;51.428;6.756;2023-05-07T07:04:13;6.23;;;5.63;;
15398;SDS011;7797;51.428;6.756;2023-05-07T07:06:40;6.13;;;5.57;;
15398;SDS011;7797;51.428;6.756;2023-05-07T07:09:07;6.53;;;5.23;;
15398;SDS011;7797;51.428;6.756;2023-05-07T07:11:34;6.97;;;5.23;;
15398;SDS011;7797;51.428;6.756;2023-05-07T07:14:01;6.00;;;5.40;;
15398;SDS011;7797;51.428;6.756;2023-05-07T07:16:27;5.93;;;5.03;;
15398;SDS011;7797;51.428;6.756;2023-05-07T07:18:54;5.37;;;4.87;;
15398;SDS011;7797;51.428;6.756;2023-05-07T07:21:21;5.50;;;4.97;;
15398;SDS011;7797;51.428;6.756;2023-05-07T07:23:48;5.27;;;4.77;;
15398;SDS011;7797;51.428;6.756;2023-05-07T07:26:14;5.37;;;4.87;;
15398;SDS011;7797;51.428;6.756;2023-05-07T07:28:42;5.20;;;4.50;;
15398;SDS011;7797;51.428;6.756;2023-05-07T07:31:12;4.20;;;3.80;;
15398;SDS011;7797;51.428;6.756;2023-05-07T07:33:39;4.77;;;4.20;;
15398;SDS011;7797;51.428;6.756;2023-05-07T07:36:06;4.77;;;4.23;;
15398;SDS011;7797;51.428;6.756;2023-05-07T07:38:33;3.70;;;3.50;;
15398;SDS011;7797;51.428;6.756;2023-05-07T07:41:00;4.13;;;3.83;;
15398;SDS011;7797;51.428;6.756;2023-05-07T07:43:28;3.67;;;3.30;;
15398;SDS011;7797;51.428;6.756;2023-05-07T07:45:55;3.73;;;3.30;;
15398;SDS011;7797;51.428;6.756;2023-05-07T07:48:21;5.00;;;3.40;;
15398;SDS011;7797;51.428;6.756;2023-05-07T07:50:49;3.80;;;3.50;;
15398;SDS011;7797;51.428;6.756;2023-05-07T07:53:17;4.10;;;3.80;;
15398;SDS011;7797;51.428;6.756;2023-05-07T07:55:44;3.80;;;3.50;;
15398;SDS011;7797;51.428;6.756;2023-05-07T07:58:11;4.17;;;3.20;;
15398;SDS011;7797;51.428;6.756;2023-05-07T08:00:38;3.60;;;3.30;;
15398;SDS011;7797;51.428;6.756;2023-05-07T08:03:04;3.40;;;3.20;;
15398;SDS011;7797;51.428;6.756;2023-05-07T08:05:33;3.33;;;3.13;;
15398;SDS011;7797;51.428;6.756;2023-05-07T08:07:59;3.70;;;3.40;;
15398;SDS011;7797;51.428;6.756;2023-05-07T08:10:26;3.80;;;3.43;;
15398;SDS011;7797;51.428;6.756;2023-05-07T08:12:53;4.97;;;3.50;;
15398;SDS011;7797;51.428;6.756;2023-05-07T08:15:20;4.20;;;3.80;;
15398;SDS011;7797;51.428;6.756;2023-05-07T08:17:49;3.87;;;3.47;;
15398;SDS011;7797;51.428;6.756;2023-05-07T08:23:18;3.90;;;3.60;;
15398;SDS011;7797;51.428;6.756;2023-05-07T08:28:48;3.20;;;2.97;;
15398;SDS011;7797;51.428;6.756;2023-05-07T08:31:15;4.30;;;3.27;;
15398;SDS011;7797;51.428;6.756;2023-05-07T08:33:42;3.03;;;2.83;;
15398;SDS011;7797;51.428;6.756;2023-05-07T08:36:09;3.17;;;2.80;;
15398;SDS011;7797;51.428;6.756;2023-05-07T08:38:35;3.43;;;3.13;;
15398;SDS011;7797;51.428;6.756;2023-05-07T08:41:02;3.40;;;3.00;;
15398;SDS011;7797;51.428;6.756;2023-05-07T08:43:29;2.93;;;2.73;;
15398;SDS011;7797;51.428;6.756;2023-05-07T08:45:59;3.03;;;2.83;;
15398;SDS011;7797;51.428;6.756;2023-05-07T08:48:29;3.57;;;3.27;;
15398;SDS011;7797;51.428;6.756;2023-05-07T08:50:59;3.30;;;3.00;;
15398;SDS011;7797;51.428;6.756;2023-05-07T08:53:26;4.53;;;3.30;;
15398;SDS011;7797;51.428;6.756;2023-05-07T08:55:53;3.30;;;2.97;;
15398;SDS011;7797;51.428;6.756;2023-05-07T08:58:20;3.13;;;2.90;;
15398;SDS011;7797;51.428;6.756;2023-05-07T09:00:46;4.70;;;3.27;;
15398;SDS011;7797;51.428;6.756;2023-05-07T09:03:13;3.63;;;3.33;;
15398;SDS011;7797;51.428;6.756;2023-05-07T09:05:40;3.27;;;2.97;;
15398;SDS011;7797;51.428;6.756;2023-05-07T09:08:07;3.20;;;2.90;;
15398;SDS011;7797;51.428;6.756;2023-05-07T09:10:34;3.10;;;2.80;;
15398;SDS011;7797;51.428;6.756;2023-05-07T09:13:02;3.37;;;3.07;;
15398;SDS011;7797;51.428;6.756;2023-05-07T09:15:29;2.80;;;2.60;;
15398;SDS011;7797;51.428;6.756;2023-05-07T09:17:59;2.50;;;2.30;;
15398;SDS011;7797;51.428;6.756;2023-05-07T09:20:29;4.43;;;3.03;;
15398;SDS011;7797;51.428;6.756;2023-05-07T09:22:57;3.13;;;2.50;;
15398;SDS011;7797;51.428;6.756;2023-05-07T09:25:41;3.10;;;2.77;;
15398;SDS011;7797;51.428;6.756;2023-05-07T09:28:08;2.20;;;2.10;;
15398;SDS011;7797;51.428;6.756;2023-05-07T09:30:36;2.10;;;2.00;;
15398;SDS011;7797;51.428;6.756;2023-05-07T09:33:04;3.00;;;2.10;;
15398;SDS011;7797;51.428;6.756;2023-05-07T09:35:31;3.57;;;2.40;;
15398;SDS011;7797;51.428;6.756;2023-05-07T09:37:59;2.20;;;2.10;;
15398;SDS011;7797;51.428;6.756;2023-05-07T09:40:30;2.40;;;2.20;;
15398;SDS011;7797;51.428;6.756;2023-05-07T09:43:07;2.28;;;2.08;;
15398;SDS011;7797;51.428;6.756;2023-05-07T09:45:36;2.25;;;2.13;;
15398;SDS011;7797;51.428;6.756;2023-05-07T09:48:04;2.67;;;2.40;;
15398;SDS011;7797;51.428;6.756;2023-05-07T09:50:34;2.30;;;2.20;;
15398;SDS011;7797;51.428;6.756;2023-05-07T09:53:03;7.90;;;2.90;;
15398;SDS011;7797;51.428;6.756;2023-05-07T09:55:31;2.22;;;2.03;;
15398;SDS011;7797;51.428;6.756;2023-05-07T09:57:58;3.90;;;2.40;;
15398;SDS011;7797;51.428;6.756;2023-05-07T10:00:25;2.25;;;2.15;;
15398;SDS011;7797;51.428;6.756;2023-05-07T10:02:52;1.80;;;1.70;;
15398;SDS011;7797;51.428;6.756;2023-05-07T10:05:21;3.13;;;2.40;;
15398;SDS011;7797;51.428;6.756;2023-05-07T10:07:48;5.03;;;2.17;;
15398;SDS011;7797;51.428;6.756;2023-05-07T10:10:17;2.83;;;2.15;;
15398;SDS011;7797;51.428;6.756;2023-05-07T10:12:43;2.17;;;2.00;;
15398;SDS011;7797;51.428;6.756;2023-05-07T10:15:11;2.05;;;1.85;;
15398;SDS011;7797;51.428;6.756;2023-05-07T10:17:39;2.53;;;2.17;;
15398;SDS011;7797;51.428;6.756;2023-05-07T10:20:07;3.13;;;2.20;;
15398;SDS011;7797;51.428;6.756;2023-05-07T10:22:39;3.20;;;1.83;;
15398;SDS011;7797;51.428;6.756;2023-05-07T10:25:14;1.90;;;1.80;;
15398;SDS011;7797;51.428;6.756;2023-05-07T10:27:44;1.97;;;1.80;;
15398;SDS011;7797;51.428;6.756;2023-05-07T10:33:17;3.37;;;2.30;;
15398;SDS011;7797;51.428;6.756;2023-05-07T10:35:45;2.15;;;2.00;;
15398;SDS011;7797;51.428;6.756;2023-05-07T10:38:13;2.23;;;2.00;;
15398;SDS011;7797;51.428;6.756;2023-05-07T10:40:40;2.50;;;2.30;;
15398;SDS011;7797;51.428;6.756;2023-05-07T10:43:07;2.20;;;2.00;;
15398;SDS011;7797;51.428;6.756;2023-05-07T10:45:36;4.50;;;2.10;;
15398;SDS011;7797;51.428;6.756;2023-05-07T10:51:17;2.80;;;2.40;;
15398;SDS011;7797;51.428;6.756;2023-05-07T10:53:44;3.17;;;2.33;;
15398;SDS011;7797;51.428;6.756;2023-05-07T11:05:31;3.92;;;2.60;;
15398;SDS011;7797;51.428;6.756;2023-05-07T11:08:03;2.80;;;2.67;;
15398;SDS011;7797;51.428;6.756;2023-05-07T11:13:16;2.70;;;2.60;;
15398;SDS011;7797;51.428;6.756;2023-05-07T11:15:46;3.15;;;2.28;;
15398;SDS011;7797;51.428;6.756;2023-05-07T11:18:14;3.25;;;2.65;;
15398;SDS011;7797;51.428;6.756;2023-05-07T11:20:50;2.70;;;2.35;;
15398;SDS011;7797;51.428;6.756;2023-05-07T11:26:03;5.60;;;2.33;;
15398;SDS011;7797;51.428;6.756;2023-05-07T11:28:33;2.88;;;2.55;;
15398;SDS011;7797;51.428;6.756;2023-05-07T11:31:03;2.60;;;2.40;;
15398;SDS011;7797;51.428;6.756;2023-05-07T11:33:31;3.13;;;2.60;;
15398;SDS011;7797;51.428;6.756;2023-05-07T11:35:58;3.65;;;2.20;;
15398;SDS011;7797;51.428;6.756;2023-05-07T11:38:26;3.22;;;2.20;;
15398;SDS011;7797;51.428;6.756;2023-05-07T11:40:53;2.50;;;2.30;;
15398;SDS011;7797;51.428;6.756;2023-05-07T11:43:23;2.60;;;2.40;;
15398;SDS011;7797;51.428;6.756;2023-05-07T11:45:50;3.42;;;2.58;;
15398;SDS011;7797;51.428;6.756;2023-05-07T11:48:17;2.20;;;2.10;;
15398;SDS011;7797;51.428;6.756;2023-05-07T11:53:18;2.33;;;2.05;;
15398;SDS011;7797;51.428;6.756;2023-05-07T11:55:46;3.45;;;2.25;;
15398;SDS011;7797;51.428;6.756;2023-05-07T11:58:18;2.20;;;2.00;;
15398;SDS011;7797;51.428;6.756;2023-05-07T12:00:53;2.83;;;2.55;;
15398;SDS011;7797;51.428;6.756;2023-05-07T12:03:20;2.70;;;2.50;;
15398;SDS011;7797;51.428;6.756;2023-05-07T12:05:47;3.58;;;3.03;;
15398;SDS011;7797;51.428;6.756;2023-05-07T12:08:15;3.78;;;3.47;;
15398;SDS011;7797;51.428;6.756;2023-05-07T12:10:42;4.37;;;2.90;;
15398;SDS011;7797;51.428;6.756;2023-05-07T12:13:23;3.03;;;2.63;;
15398;SDS011;7797;51.428;6.756;2023-05-07T12:15:54;3.57;;;2.53;;
15398;SDS011;7797;51.428;6.756;2023-05-07T12:18:22;2.78;;;2.60;;
15398;SDS011;7797;51.428;6.756;2023-05-07T12:20:49;3.38;;;2.58;;
15398;SDS011;7797;51.428;6.756;2023-05-07T12:23:16;3.28;;;2.90;;
15398;SDS011;7797;51.428;6.756;2023-05-07T12:25:48;4.32;;;2.90;;
15398;SDS011;7797;51.428;6.756;2023-05-07T12:28:17;4.38;;;3.20;;
15398;SDS011;7797;51.428;6.756;2023-05-07T12:30:45;2.90;;;2.70;;
15398;SDS011;7797;51.428;6.756;2023-05-07T12:33:22;2.72;;;2.53;;
15398;SDS011;7797;51.428;6.756;2023-05-07T12:35:50;3.40;;;3.10;;
15398;SDS011;7797;51.428;6.756;2023-05-07T12:38:20;4.20;;;3.42;;
15398;SDS011;7797;51.428;6.756;2023-05-07T12:40:47;4.43;;;3.20;;
15398;SDS011;7797;51.428;6.756;2023-05-07T12:43:21;4.20;;;3.30;;
15398;SDS011;7797;51.428;6.756;2023-05-07T12:45:51;3.70;;;3.40;;
15398;SDS011;7797;51.428;6.756;2023-05-07T12:48:19;3.67;;;3.38;;
15398;SDS011;7797;51.428;6.756;2023-05-07T12:51:04;3.13;;;2.92;;
15398;SDS011;7797;51.428;6.756;2023-05-07T12:53:32;2.80;;;2.60;;
15398;SDS011;7797;51.428;6.756;2023-05-07T12:55:59;3.22;;;2.72;;
15398;SDS011;7797;51.428;6.756;2023-05-07T12:58:30;3.35;;;2.55;;
15398;SDS011;7797;51.428;6.756;2023-05-07T13:00:58;2.97;;;2.67;;
15398;SDS011;7797;51.428;6.756;2023-05-07T13:03:30;3.05;;;2.65;;
15398;SDS011;7797;51.428;6.756;2023-05-07T13:06:01;2.97;;;2.67;;
15398;SDS011;7797;51.428;6.756;2023-05-07T13:08:33;2.53;;;2.30;;
15398;SDS011;7797;51.428;6.756;2023-05-07T13:11:06;2.83;;;2.60;;
15398;SDS011;7797;51.428;6.756;2023-05-07T13:13:34;2.75;;;2.55;;
15398;SDS011;7797;51.428;6.756;2023-05-07T13:16:05;2.70;;;2.50;;
15398;SDS011;7797;51.428;6.756;2023-05-07T13:18:36;3.00;;;2.80;;
15398;SDS011;7797;51.428;6.756;2023-05-07T13:21:12;3.40;;;2.70;;
15398;SDS011;7797;51.428;6.756;2023-05-07T13:23:39;3.35;;;3.05;;
15398;SDS011;7797;51.428;6.756;2023-05-07T13:26:06;4.70;;;3.07;;
15398;SDS011;7797;51.428;6.756;2023-05-07T13:28:51;3.03;;;2.73;;
15398;SDS011;7797;51.428;6.756;2023-05-07T13:31:19;4.50;;;3.10;;
15398;SDS011;7797;51.428;6.756;2023-05-07T13:33:47;3.70;;;2.83;;
15398;SDS011;7797;51.428;6.756;2023-05-07T13:36:14;3.10;;;2.90;;
15398;SDS011;7797;51.428;6.756;2023-05-07T13:38:41;3.13;;;2.90;;
15398;SDS011;7797;51.428;6.756;2023-05-07T13:41:07;3.80;;;3.50;;
15398;SDS011;7797;51.428;6.756;2023-05-07T13:43:34;4.27;;;3.20;;
15398;SDS011;7797;51.428;6.756;2023-05-07T13:46:01;3.53;;;3.10;;
15398;SDS011;7797;51.428;6.756;2023-05-07T13:48:28;3.30;;;3.10;;
15398;SDS011;7797;51.428;6.756;2023-05-07T13:50:55;3.60;;;3.30;;
15398;SDS011;7797;51.428;6.756;2023-05-07T13:53:21;3.90;;;3.30;;
15398;SDS011;7797;51.428;6.756;2023-05-07T13:55:48;6.53;;;4.13;;
15398;SDS011;7797;51.428;6.756;2023-05-07T13:58:15;4.80;;;3.50;;
15398;SDS011;7797;51.428;6.756;2023-05-07T14:00:42;4.00;;;3.60;;
15398;SDS011;7797;51.428;6.756;2023-05-07T14:03:09;3.60;;;3.30;;
15398;SDS011;7797;51.428;6.756;2023-05-07T14:05:36;5.47;;;3.53;;
15398;SDS011;7797;51.428;6.756;2023-05-07T14:08:03;4.63;;;3.60;;
15398;SDS011;7797;51.428;6.756;2023-05-07T14:10:30;3.47;;;3.17;;
15398;SDS011;7797;51.428;6.756;2023-05-07T14:12:58;4.10;;;3.50;;
15398;SDS011;7797;51.428;6.756;2023-05-07T14:15:25;3.77;;;3.47;;
15398;SDS011;7797;51.428;6.756;2023-05-07T14:17:51;4.57;;;3.90;;
15398;SDS011;7797;51.428;6.756;2023-05-07T14:20:21;4.67;;;3.73;;
15398;SDS011;7797;51.428;6.756;2023-05-07T14:22:48;6.27;;;5.33;;
15398;SDS011;7797;51.428;6.756;2023-05-07T14:25:15;6.80;;;5.07;;
15398;SDS011;7797;51.428;6.756;2023-05-07T14:27:42;6.03;;;4.70;;
15398;SDS011;7797;51.428;6.756;2023-05-07T14:30:10;5.40;;;4.80;;
15398;SDS011;7797;51.428;6.756;2023-05-07T14:32:40;6.87;;;4.97;;
15398;SDS011;7797;51.428;6.756;2023-05-07T14:35:06;6.27;;;5.50;;
15398;SDS011;7797;51.428;6.756;2023-05-07T14:37:34;5.67;;;4.97;;
15398;SDS011;7797;51.428;6.756;2023-05-07T14:40:01;6.77;;;5.40;;
15398;SDS011;7797;51.428;6.756;2023-05-07T14:42:33;6.10;;;5.07;;
15398;SDS011;7797;51.428;6.756;2023-05-07T14:45:00;5.87;;;5.27;;
15398;SDS011;7797;51.428;6.756;2023-05-07T14:47:27;7.00;;;5.00;;
15398;SDS011;7797;51.428;6.756;2023-05-07T14:49:54;5.50;;;5.00;;
15398;SDS011;7797;51.428;6.756;2023-05-07T14:52:23;6.57;;;4.50;;
15398;SDS011;7797;51.428;6.756;2023-05-07T14:54:50;5.20;;;4.70;;
15398;SDS011;7797;51.428;6.756;2023-05-07T14:57:18;5.83;;;4.93;;
15398;SDS011;7797;51.428;6.756;2023-05-07T14:59:45;9.00;;;5.53;;
15398;SDS011;7797;51.428;6.756;2023-05-07T15:02:13;6.23;;;5.43;;
15398;SDS011;7797;51.428;6.756;2023-05-07T15:04:40;7.00;;;5.47;;
15398;SDS011;7797;51.428;6.756;2023-05-07T15:07:12;6.17;;;5.60;;
15398;SDS011;7797;51.428;6.756;2023-05-07T15:09:44;6.73;;;5.80;;
15398;SDS011;7797;51.428;6.756;2023-05-07T15:12:11;6.00;;;5.40;;
15398;SDS011;7797;51.428;6.756;2023-05-07T15:14:38;6.10;;;5.50;;
15398;SDS011;7797;51.428;6.756;2023-05-07T15:17:05;5.63;;;5.23;;
15398;SDS011;7797;51.428;6.756;2023-05-07T15:19:33;7.87;;;6.00;;
15398;SDS011;7797;51.428;6.756;2023-05-07T15:22:05;7.30;;;5.90;;
15398;SDS011;7797;51.428;6.756;2023-05-07T15:24:32;6.60;;;6.00;;
15398;SDS011;7797;51.428;6.756;2023-05-07T15:26:59;7.73;;;6.00;;
15398;SDS011;7797;51.428;6.756;2023-05-07T15:29:25;7.23;;;6.43;;
15398;SDS011;7797;51.428;6.756;2023-05-07T15:31:52;8.00;;;6.73;;
15398;SDS011;7797;51.428;6.756;2023-05-07T15:34:19;8.07;;;6.60;;